sensor_id;sensor_type;location;lat;lon;timestamp;P1;durP1;ratioP1;P2;durP2;ratioP2
22357;SDS011;11346;50.150;8.150;2022-08-03T00:00:20;3.10;;;2.80;;
22357;SDS011;11346;50.150;8.150;2022-08-03T00:02:48;2.80;;;2.50;;
22357;SDS011;11346;50.150;8.150;2022-08-03T00:05:16;2.87;;;2.60;;
22357;SDS011;11346;50.150;8.150;2022-08-03T00:07:43;2.73;;;2.53;;
22357;SDS011;11346;50.150;8.150;2022-08-03T00:10:14;2.77;;;2.57;;
22357;SDS011;11346;50.150;8.150;2022-08-03T00:12:41;5.63;;;2.63;;
22357;SDS011;11346;50.150;8.150;2022-08-03T00:15:08;3.00;;;2.70;;
22357;SDS011;11346;50.150;8.150;2022-08-03T00:17:36;4.53;;;3.37;;
22357;SDS011;11346;50.150;8.150;2022-08-03T00:20:03;3.03;;;2.83;;
22357;SDS011;11346;50.150;8.150;2022-08-03T00:22:31;3.33;;;2.60;;
22357;SDS011;11346;50.150;8.150;2022-08-03T00:25:00;3.67;;;2.57;;
22357;SDS011;11346;50.150;8.150;2022-08-03T00:27:27;2.90;;;2.63;;
22357;SDS011;11346;50.150;8.150;2022-08-03T00:29:54;5.27;;;3.10;;
22357;SDS011;11346;50.150;8.150;2022-08-03T00:32:21;4.23;;;2.93;;
22357;SDS011;11346;50.150;8.150;2022-08-03T00:34:48;4.47;;;2.93;;
22357;SDS011;11346;50.150;8.150;2022-08-03T00:37:16;3.10;;;2.90;;
22357;SDS011;11346;50.150;8.150;2022-08-03T00:39:44;3.93;;;2.70;;
22357;SDS011;11346;50.150;8.150;2022-08-03T00:42:12;3.00;;;2.80;;
22357;SDS011;11346;50.150;8.150;2022-08-03T00:44:39;4.43;;;2.60;;
22357;SDS011;11346;50.150;8.150;2022-08-03T00:47:07;2.67;;;2.47;;
22357;SDS011;11346;50.150;8.150;2022-08-03T00:49:34;4.43;;;2.60;;
22357;SDS011;11346;50.150;8.150;2022-08-03T00:52:02;4.60;;;2.77;;
22357;SDS011;11346;50.150;8.150;2022-08-03T00:54:29;5.73;;;2.87;;
22357;SDS011;11346;50.150;8.150;2022-08-03T00:56:58;2.97;;;2.60;;
22357;SDS011;11346;50.150;8.150;2022-08-03T00:59:25;3.37;;;2.90;;
22357;SDS011;11346;50.150;8.150;2022-08-03T01:01:52;3.13;;;2.83;;
22357;SDS011;11346;50.150;8.150;2022-08-03T01:04:19;2.67;;;2.47;;
22357;SDS011;11346;50.150;8.150;2022-08-03T01:06:48;3.17;;;2.80;;
22357;SDS011;11346;50.150;8.150;2022-08-03T01:09:18;2.93;;;2.73;;
22357;SDS011;11346;50.150;8.150;2022-08-03T01:11:48;3.63;;;2.40;;
22357;SDS011;11346;50.150;8.150;2022-08-03T01:14:20;2.87;;;2.67;;
22357;SDS011;11346;50.150;8.150;2022-08-03T01:16:50;2.80;;;2.53;;
22357;SDS011;11346;50.150;8.150;2022-08-03T01:19:29;3.20;;;2.50;;
22357;SDS011;11346;50.150;8.150;2022-08-03T01:21:58;4.00;;;2.60;;
22357;SDS011;11346;50.150;8.150;2022-08-03T01:24:32;2.83;;;2.57;;
22357;SDS011;11346;50.150;8.150;2022-08-03T01:27:04;3.97;;;2.60;;
22357;SDS011;11346;50.150;8.150;2022-08-03T01:29:48;3.00;;;2.80;;
22357;SDS011;11346;50.150;8.150;2022-08-03T01:32:17;5.00;;;2.73;;
22357;SDS011;11346;50.150;8.150;2022-08-03T01:34:46;3.10;;;2.87;;
22357;SDS011;11346;50.150;8.150;2022-08-03T01:37:14;4.27;;;2.60;;
22357;SDS011;11346;50.150;8.150;2022-08-03T01:39:42;3.90;;;2.93;;
22357;SDS011;11346;50.150;8.150;2022-08-03T01:42:10;5.63;;;2.80;;
22357;SDS011;11346;50.150;8.150;2022-08-03T01:44:39;5.33;;;2.77;;
22357;SDS011;11346;50.150;8.150;2022-08-03T01:47:08;3.03;;;2.80;;
22357;SDS011;11346;50.150;8.150;2022-08-03T01:49:38;3.43;;;2.53;;
22357;SDS011;11346;50.150;8.150;2022-08-03T01:52:06;3.13;;;2.90;;
22357;SDS011;11346;50.150;8.150;2022-08-03T01:54:35;3.37;;;2.60;;
22357;SDS011;11346;50.150;8.150;2022-08-03T01:57:02;3.87;;;2.70;;
22357;SDS011;11346;50.150;8.150;2022-08-03T01:59:31;2.90;;;2.70;;
22357;SDS011;11346;50.150;8.150;2022-08-03T02:02:00;5.70;;;2.90;;
22357;SDS011;11346;50.150;8.150;2022-08-03T02:04:29;4.20;;;3.17;;
22357;SDS011;11346;50.150;8.150;2022-08-03T02:06:56;3.53;;;3.20;;
22357;SDS011;11346;50.150;8.150;2022-08-03T02:09:24;3.73;;;2.90;;
22357;SDS011;11346;50.150;8.150;2022-08-03T02:11:52;3.33;;;2.93;;
22357;SDS011;11346;50.150;8.150;2022-08-03T02:14:21;5.07;;;2.97;;
22357;SDS011;11346;50.150;8.150;2022-08-03T02:16:49;3.10;;;2.90;;
22357;SDS011;11346;50.150;8.150;2022-08-03T02:19:17;2.97;;;2.67;;
22357;SDS011;11346;50.150;8.150;2022-08-03T02:21:46;3.20;;;3.00;;
22357;SDS011;11346;50.150;8.150;2022-08-03T02:24:14;3.00;;;2.80;;
22357;SDS011;11346;50.150;8.150;2022-08-03T02:26:41;4.93;;;3.00;;
22357;SDS011;11346;50.150;8.150;2022-08-03T02:29:10;6.03;;;2.77;;
22357;SDS011;11346;50.150;8.150;2022-08-03T02:31:38;6.33;;;2.93;;
22357;SDS011;11346;50.150;8.150;2022-08-03T02:34:07;2.90;;;2.70;;
22357;SDS011;11346;50.150;8.150;2022-08-03T02:36:36;5.30;;;2.90;;
22357;SDS011;11346;50.150;8.150;2022-08-03T02:39:06;5.23;;;3.20;;
22357;SDS011;11346;50.150;8.150;2022-08-03T02:41:36;3.43;;;3.13;;
22357;SDS011;11346;50.150;8.150;2022-08-03T02:44:06;2.87;;;2.67;;
22357;SDS011;11346;50.150;8.150;2022-08-03T02:46:35;3.10;;;2.90;;
22357;SDS011;11346;50.150;8.150;2022-08-03T02:49:03;3.57;;;2.67;;
22357;SDS011;11346;50.150;8.150;2022-08-03T02:51:31;3.07;;;2.70;;
22357;SDS011;11346;50.150;8.150;2022-08-03T02:53:59;4.97;;;3.30;;
22357;SDS011;11346;50.150;8.150;2022-08-03T02:56:29;3.20;;;2.90;;
22357;SDS011;11346;50.150;8.150;2022-08-03T02:58:57;3.63;;;3.33;;
22357;SDS011;11346;50.150;8.150;2022-08-03T03:01:26;7.63;;;2.70;;
22357;SDS011;11346;50.150;8.150;2022-08-03T03:03:53;3.10;;;2.80;;
22357;SDS011;11346;50.150;8.150;2022-08-03T03:06:21;3.20;;;3.00;;
22357;SDS011;11346;50.150;8.150;2022-08-03T03:08:49;3.23;;;2.93;;
22357;SDS011;11346;50.150;8.150;2022-08-03T03:11:18;3.10;;;2.90;;
22357;SDS011;11346;50.150;8.150;2022-08-03T03:13:48;3.50;;;2.80;;
22357;SDS011;11346;50.150;8.150;2022-08-03T03:16:15;2.97;;;2.73;;
22357;SDS011;11346;50.150;8.150;2022-08-03T03:18:44;6.03;;;2.77;;
22357;SDS011;11346;50.150;8.150;2022-08-03T03:21:11;2.93;;;2.73;;
22357;SDS011;11346;50.150;8.150;2022-08-03T03:23:39;3.97;;;3.00;;
22357;SDS011;11346;50.150;8.150;2022-08-03T03:26:07;3.00;;;2.80;;
22357;SDS011;11346;50.150;8.150;2022-08-03T03:28:34;3.97;;;2.90;;
22357;SDS011;11346;50.150;8.150;2022-08-03T03:31:04;2.93;;;2.73;;
22357;SDS011;11346;50.150;8.150;2022-08-03T03:33:31;3.20;;;2.90;;
22357;SDS011;11346;50.150;8.150;2022-08-03T03:35:59;4.27;;;3.10;;
22357;SDS011;11346;50.150;8.150;2022-08-03T03:38:26;3.27;;;2.97;;
22357;SDS011;11346;50.150;8.150;2022-08-03T03:40:53;3.60;;;3.10;;
22357;SDS011;11346;50.150;8.150;2022-08-03T03:43:21;5.50;;;3.50;;
22357;SDS011;11346;50.150;8.150;2022-08-03T03:45:49;3.77;;;3.40;;
22357;SDS011;11346;50.150;8.150;2022-08-03T03:48:19;3.53;;;2.83;;
22357;SDS011;11346;50.150;8.150;2022-08-03T03:50:47;3.20;;;3.00;;
22357;SDS011;11346;50.150;8.150;2022-08-03T03:53:15;3.20;;;2.93;;
22357;SDS011;11346;50.150;8.150;2022-08-03T03:55:42;3.00;;;2.70;;
22357;SDS011;11346;50.150;8.150;2022-08-03T03:58:09;4.70;;;2.77;;
22357;SDS011;11346;50.150;8.150;2022-08-03T04:00:37;4.33;;;2.80;;
22357;SDS011;11346;50.150;8.150;2022-08-03T04:03:04;4.30;;;2.97;;
22357;SDS011;11346;50.150;8.150;2022-08-03T04:05:32;3.27;;;3.00;;
22357;SDS011;11346;50.150;8.150;2022-08-03T04:08:17;3.30;;;3.10;;
22357;SDS011;11346;50.150;8.150;2022-08-03T04:11:04;3.70;;;3.13;;
22357;SDS011;11346;50.150;8.150;2022-08-03T04:13:34;6.03;;;2.50;;
22357;SDS011;11346;50.150;8.150;2022-08-03T04:16:02;2.80;;;2.60;;
22357;SDS011;11346;50.150;8.150;2022-08-03T04:18:31;3.77;;;2.60;;
22357;SDS011;11346;50.150;8.150;2022-08-03T04:21:02;2.83;;;2.63;;
22357;SDS011;11346;50.150;8.150;2022-08-03T04:23:30;3.10;;;2.80;;
22357;SDS011;11346;50.150;8.150;2022-08-03T04:25:57;4.20;;;3.00;;
22357;SDS011;11346;50.150;8.150;2022-08-03T04:28:25;5.97;;;3.00;;
22357;SDS011;11346;50.150;8.150;2022-08-03T04:30:53;5.67;;;2.80;;
22357;SDS011;11346;50.150;8.150;2022-08-03T04:33:22;3.40;;;3.10;;
22357;SDS011;11346;50.150;8.150;2022-08-03T04:35:51;2.97;;;2.77;;
22357;SDS011;11346;50.150;8.150;2022-08-03T04:38:21;3.57;;;3.00;;
22357;SDS011;11346;50.150;8.150;2022-08-03T04:40:50;4.57;;;2.60;;
22357;SDS011;11346;50.150;8.150;2022-08-03T04:43:18;4.33;;;3.00;;
22357;SDS011;11346;50.150;8.150;2022-08-03T04:45:46;3.17;;;2.80;;
22357;SDS011;11346;50.150;8.150;2022-08-03T04:48:15;3.47;;;3.17;;
22357;SDS011;11346;50.150;8.150;2022-08-03T04:50:42;5.97;;;3.33;;
22357;SDS011;11346;50.150;8.150;2022-08-03T04:53:10;3.47;;;3.17;;
22357;SDS011;11346;50.150;8.150;2022-08-03T04:55:38;3.20;;;2.90;;
22357;SDS011;11346;50.150;8.150;2022-08-03T04:58:05;3.40;;;3.10;;
22357;SDS011;11346;50.150;8.150;2022-08-03T05:00:33;3.63;;;3.30;;
22357;SDS011;11346;50.150;8.150;2022-08-03T05:03:00;5.77;;;3.40;;
22357;SDS011;11346;50.150;8.150;2022-08-03T05:05:27;4.70;;;3.07;;
22357;SDS011;11346;50.150;8.150;2022-08-03T05:07:54;3.47;;;3.17;;
22357;SDS011;11346;50.150;8.150;2022-08-03T05:10:21;4.50;;;3.27;;
22357;SDS011;11346;50.150;8.150;2022-08-03T05:12:49;4.00;;;3.20;;
22357;SDS011;11346;50.150;8.150;2022-08-03T05:15:17;3.80;;;3.47;;
22357;SDS011;11346;50.150;8.150;2022-08-03T05:17:45;3.60;;;3.30;;
22357;SDS011;11346;50.150;8.150;2022-08-03T05:20:13;3.20;;;3.00;;
22357;SDS011;11346;50.150;8.150;2022-08-03T05:22:40;3.67;;;3.13;;
22357;SDS011;11346;50.150;8.150;2022-08-03T05:25:07;2.70;;;2.57;;
22357;SDS011;11346;50.150;8.150;2022-08-03T05:27:34;6.77;;;3.00;;
22357;SDS011;11346;50.150;8.150;2022-08-03T05:30:03;4.17;;;3.17;;
22357;SDS011;11346;50.150;8.150;2022-08-03T05:32:31;4.77;;;2.77;;
22357;SDS011;11346;50.150;8.150;2022-08-03T05:34:58;3.60;;;3.10;;
22357;SDS011;11346;50.150;8.150;2022-08-03T05:37:25;3.47;;;3.27;;
22357;SDS011;11346;50.150;8.150;2022-08-03T05:39:52;3.20;;;2.90;;
22357;SDS011;11346;50.150;8.150;2022-08-03T05:42:20;3.03;;;2.80;;
22357;SDS011;11346;50.150;8.150;2022-08-03T05:44:47;3.20;;;2.90;;
22357;SDS011;11346;50.150;8.150;2022-08-03T05:47:15;3.03;;;2.80;;
22357;SDS011;11346;50.150;8.150;2022-08-03T05:49:42;3.53;;;3.20;;
22357;SDS011;11346;50.150;8.150;2022-08-03T05:52:09;3.70;;;2.90;;
22357;SDS011;11346;50.150;8.150;2022-08-03T05:54:37;4.30;;;3.47;;
22357;SDS011;11346;50.150;8.150;2022-08-03T05:57:04;5.97;;;3.00;;
22357;SDS011;11346;50.150;8.150;2022-08-03T05:59:31;7.50;;;3.40;;
22357;SDS011;11346;50.150;8.150;2022-08-03T06:01:58;3.50;;;2.73;;
22357;SDS011;11346;50.150;8.150;2022-08-03T06:04:26;3.30;;;3.00;;
22357;SDS011;11346;50.150;8.150;2022-08-03T06:06:53;3.87;;;3.17;;
22357;SDS011;11346;50.150;8.150;2022-08-03T06:09:21;4.70;;;2.83;;
22357;SDS011;11346;50.150;8.150;2022-08-03T06:11:48;2.80;;;2.60;;
22357;SDS011;11346;50.150;8.150;2022-08-03T06:14:15;3.63;;;2.80;;
22357;SDS011;11346;50.150;8.150;2022-08-03T06:16:42;2.90;;;2.57;;
22357;SDS011;11346;50.150;8.150;2022-08-03T06:19:09;3.00;;;2.70;;
22357;SDS011;11346;50.150;8.150;2022-08-03T06:21:38;3.00;;;2.70;;
22357;SDS011;11346;50.150;8.150;2022-08-03T06:24:05;5.77;;;2.60;;
22357;SDS011;11346;50.150;8.150;2022-08-03T06:26:32;3.50;;;2.93;;
22357;SDS011;11346;50.150;8.150;2022-08-03T06:28:59;4.00;;;2.50;;
22357;SDS011;11346;50.150;8.150;2022-08-03T06:31:27;3.17;;;2.37;;
22357;SDS011;11346;50.150;8.150;2022-08-03T06:33:54;2.40;;;2.20;;
22357;SDS011;11346;50.150;8.150;2022-08-03T06:36:21;2.50;;;2.20;;
22357;SDS011;11346;50.150;8.150;2022-08-03T06:38:51;2.97;;;2.13;;
22357;SDS011;11346;50.150;8.150;2022-08-03T06:41:18;4.53;;;2.50;;
22357;SDS011;11346;50.150;8.150;2022-08-03T06:43:46;8.50;;;2.20;;
22357;SDS011;11346;50.150;8.150;2022-08-03T06:46:13;11.47;;;2.50;;
22357;SDS011;11346;50.150;8.150;2022-08-03T06:48:41;4.10;;;2.00;;
22357;SDS011;11346;50.150;8.150;2022-08-03T06:51:08;6.83;;;2.20;;
22357;SDS011;11346;50.150;8.150;2022-08-03T06:53:36;2.97;;;2.20;;
22357;SDS011;11346;50.150;8.150;2022-08-03T06:56:05;5.90;;;1.90;;
22357;SDS011;11346;50.150;8.150;2022-08-03T06:58:32;4.37;;;2.53;;
22357;SDS011;11346;50.150;8.150;2022-08-03T07:00:59;2.50;;;2.10;;
22357;SDS011;11346;50.150;8.150;2022-08-03T07:03:26;2.90;;;2.03;;
22357;SDS011;11346;50.150;8.150;2022-08-03T07:05:53;2.40;;;2.20;;
22357;SDS011;11346;50.150;8.150;2022-08-03T07:08:21;5.23;;;2.17;;
22357;SDS011;11346;50.150;8.150;2022-08-03T07:10:48;3.53;;;2.33;;
22357;SDS011;11346;50.150;8.150;2022-08-03T07:13:17;3.63;;;2.10;;
22357;SDS011;11346;50.150;8.150;2022-08-03T07:15:44;2.50;;;2.30;;
22357;SDS011;11346;50.150;8.150;2022-08-03T07:18:14;4.17;;;2.40;;
22357;SDS011;11346;50.150;8.150;2022-08-03T07:20:41;2.10;;;2.00;;
22357;SDS011;11346;50.150;8.150;2022-08-03T07:23:09;3.70;;;2.37;;
22357;SDS011;11346;50.150;8.150;2022-08-03T07:25:36;2.20;;;2.10;;
22357;SDS011;11346;50.150;8.150;2022-08-03T07:28:03;3.90;;;1.97;;
22357;SDS011;11346;50.150;8.150;2022-08-03T07:30:32;3.00;;;2.07;;
22357;SDS011;11346;50.150;8.150;2022-08-03T07:32:59;2.40;;;2.20;;
22357;SDS011;11346;50.150;8.150;2022-08-03T07:35:27;4.67;;;2.10;;
22357;SDS011;11346;50.150;8.150;2022-08-03T07:37:54;2.63;;;2.20;;
22357;SDS011;11346;50.150;8.150;2022-08-03T07:40:21;3.67;;;2.37;;
22357;SDS011;11346;50.150;8.150;2022-08-03T07:42:48;2.67;;;2.47;;
22357;SDS011;11346;50.150;8.150;2022-08-03T07:45:15;3.07;;;2.10;;
22357;SDS011;11346;50.150;8.150;2022-08-03T07:47:44;3.50;;;2.13;;
22357;SDS011;11346;50.150;8.150;2022-08-03T07:50:11;2.93;;;2.03;;
22357;SDS011;11346;50.150;8.150;2022-08-03T07:52:38;3.33;;;2.20;;
22357;SDS011;11346;50.150;8.150;2022-08-03T07:55:16;4.13;;;2.27;;
22357;SDS011;11346;50.150;8.150;2022-08-03T07:57:43;2.57;;;2.17;;
22357;SDS011;11346;50.150;8.150;2022-08-03T08:00:14;2.30;;;2.10;;
22357;SDS011;11346;50.150;8.150;2022-08-03T08:02:41;2.33;;;2.17;;
22357;SDS011;11346;50.150;8.150;2022-08-03T08:05:10;2.43;;;2.23;;
22357;SDS011;11346;50.150;8.150;2022-08-03T08:07:38;2.47;;;2.37;;
22357;SDS011;11346;50.150;8.150;2022-08-03T08:10:06;3.33;;;2.10;;
22357;SDS011;11346;50.150;8.150;2022-08-03T08:12:35;3.63;;;2.37;;
22357;SDS011;11346;50.150;8.150;2022-08-03T08:15:02;2.33;;;2.17;;
22357;SDS011;11346;50.150;8.150;2022-08-03T08:17:29;2.60;;;2.40;;
22357;SDS011;11346;50.150;8.150;2022-08-03T08:19:56;3.20;;;2.37;;
22357;SDS011;11346;50.150;8.150;2022-08-03T08:22:25;3.90;;;2.30;;
22357;SDS011;11346;50.150;8.150;2022-08-03T08:24:52;3.53;;;2.10;;
22357;SDS011;11346;50.150;8.150;2022-08-03T08:27:19;5.47;;;2.20;;
22357;SDS011;11346;50.150;8.150;2022-08-03T08:29:47;2.27;;;2.13;;
22357;SDS011;11346;50.150;8.150;2022-08-03T08:32:14;5.60;;;2.20;;
22357;SDS011;11346;50.150;8.150;2022-08-03T08:34:41;2.20;;;2.10;;
22357;SDS011;11346;50.150;8.150;2022-08-03T08:37:08;2.20;;;2.00;;
22357;SDS011;11346;50.150;8.150;2022-08-03T08:39:37;2.73;;;2.43;;
22357;SDS011;11346;50.150;8.150;2022-08-03T08:42:04;2.17;;;1.97;;
22357;SDS011;11346;50.150;8.150;2022-08-03T08:44:31;2.30;;;2.20;;
22357;SDS011;11346;50.150;8.150;2022-08-03T08:46:58;2.10;;;2.00;;
22357;SDS011;11346;50.150;8.150;2022-08-03T08:49:28;2.40;;;2.20;;
22357;SDS011;11346;50.150;8.150;2022-08-03T08:51:55;2.10;;;2.00;;
22357;SDS011;11346;50.150;8.150;2022-08-03T08:54:23;3.17;;;2.10;;
22357;SDS011;11346;50.150;8.150;2022-08-03T08:56:53;3.20;;;2.50;;
22357;SDS011;11346;50.150;8.150;2022-08-03T08:59:23;3.47;;;2.20;;
22357;SDS011;11346;50.150;8.150;2022-08-03T09:01:50;4.90;;;2.30;;
22357;SDS011;11346;50.150;8.150;2022-08-03T09:04:22;6.57;;;2.10;;
22357;SDS011;11346;50.150;8.150;2022-08-03T09:06:49;5.07;;;2.20;;
22357;SDS011;11346;50.150;8.150;2022-08-03T09:09:17;2.10;;;2.00;;
22357;SDS011;11346;50.150;8.150;2022-08-03T09:11:46;3.30;;;2.40;;
22357;SDS011;11346;50.150;8.150;2022-08-03T09:14:15;6.33;;;2.63;;
22357;SDS011;11346;50.150;8.150;2022-08-03T09:16:54;2.10;;;1.90;;
22357;SDS011;11346;50.150;8.150;2022-08-03T09:19:22;6.30;;;2.10;;
22357;SDS011;11346;50.150;8.150;2022-08-03T09:21:54;3.13;;;2.00;;
22357;SDS011;11346;50.150;8.150;2022-08-03T09:24:33;5.87;;;2.20;;
22357;SDS011;11346;50.150;8.150;2022-08-03T09:27:00;2.70;;;2.50;;
22357;SDS011;11346;50.150;8.150;2022-08-03T09:29:31;3.63;;;2.00;;
22357;SDS011;11346;50.150;8.150;2022-08-03T09:31:59;2.40;;;2.20;;
22357;SDS011;11346;50.150;8.150;2022-08-03T09:34:27;4.77;;;2.10;;
22357;SDS011;11346;50.150;8.150;2022-08-03T09:36:54;2.40;;;2.20;;
22357;SDS011;11346;50.150;8.150;2022-08-03T09:39:23;2.60;;;2.40;;
22357;SDS011;11346;50.150;8.150;2022-08-03T09:42:03;2.17;;;2.07;;
22357;SDS011;11346;50.150;8.150;2022-08-03T09:44:34;2.83;;;2.20;;
22357;SDS011;11346;50.150;8.150;2022-08-03T09:47:02;5.63;;;2.53;;
22357;SDS011;11346;50.150;8.150;2022-08-03T09:49:29;2.70;;;2.10;;
22357;SDS011;11346;50.150;8.150;2022-08-03T09:51:56;2.97;;;2.13;;
22357;SDS011;11346;50.150;8.150;2022-08-03T09:54:27;3.20;;;2.10;;
22357;SDS011;11346;50.150;8.150;2022-08-03T09:56:55;2.23;;;2.13;;
22357;SDS011;11346;50.150;8.150;2022-08-03T09:59:23;2.47;;;2.27;;
22357;SDS011;11346;50.150;8.150;2022-08-03T10:01:52;2.10;;;2.00;;
22357;SDS011;11346;50.150;8.150;2022-08-03T10:04:19;2.40;;;2.30;;
22357;SDS011;11346;50.150;8.150;2022-08-03T10:07:00;2.37;;;2.27;;
22357;SDS011;11346;50.150;8.150;2022-08-03T10:09:28;2.20;;;2.10;;
22357;SDS011;11346;50.150;8.150;2022-08-03T10:11:55;2.70;;;2.00;;
22357;SDS011;11346;50.150;8.150;2022-08-03T10:14:23;3.03;;;2.10;;
22357;SDS011;11346;50.150;8.150;2022-08-03T10:16:57;2.10;;;1.90;;
22357;SDS011;11346;50.150;8.150;2022-08-03T10:19:24;2.20;;;2.10;;
22357;SDS011;11346;50.150;8.150;2022-08-03T10:21:52;2.37;;;2.27;;
22357;SDS011;11346;50.150;8.150;2022-08-03T10:24:23;2.63;;;1.87;;
22357;SDS011;11346;50.150;8.150;2022-08-03T10:26:50;8.00;;;2.00;;
22357;SDS011;11346;50.150;8.150;2022-08-03T10:29:20;2.00;;;1.90;;
22357;SDS011;11346;50.150;8.150;2022-08-03T10:31:50;2.57;;;1.90;;
22357;SDS011;11346;50.150;8.150;2022-08-03T10:34:23;1.90;;;1.80;;
22357;SDS011;11346;50.150;8.150;2022-08-03T10:36:52;2.00;;;1.90;;
22357;SDS011;11346;50.150;8.150;2022-08-03T10:39:23;3.10;;;2.07;;
22357;SDS011;11346;50.150;8.150;2022-08-03T10:41:50;2.30;;;2.10;;
22357;SDS011;11346;50.150;8.150;2022-08-03T10:44:19;2.63;;;1.87;;
22357;SDS011;11346;50.150;8.150;2022-08-03T10:46:47;2.33;;;1.97;;
22357;SDS011;11346;50.150;8.150;2022-08-03T10:49:15;3.53;;;1.80;;
22357;SDS011;11346;50.150;8.150;2022-08-03T10:51:44;3.60;;;1.93;;
22357;SDS011;11346;50.150;8.150;2022-08-03T10:56:58;4.63;;;1.87;;
22357;SDS011;11346;50.150;8.150;2022-08-03T10:59:57;1.90;;;1.80;;
22357;SDS011;11346;50.150;8.150;2022-08-03T11:05:24;2.10;;;1.60;;
22357;SDS011;11346;50.150;8.150;2022-08-03T11:10:35;2.83;;;1.60;;
22357;SDS011;11346;50.150;8.150;2022-08-03T11:13:06;1.83;;;1.40;;
22357;SDS011;11346;50.150;8.150;2022-08-03T11:15:33;2.23;;;1.50;;
22357;SDS011;11346;50.150;8.150;2022-08-03T11:18:06;1.43;;;1.30;;
22357;SDS011;11346;50.150;8.150;2022-08-03T11:20:44;1.50;;;1.40;;
22357;SDS011;11346;50.150;8.150;2022-08-03T11:23:12;2.63;;;1.20;;
22357;SDS011;11346;50.150;8.150;2022-08-03T11:28:38;1.30;;;1.20;;
22357;SDS011;11346;50.150;8.150;2022-08-03T11:34:02;2.80;;;1.60;;
22357;SDS011;11346;50.150;8.150;2022-08-03T11:36:29;1.70;;;1.60;;
22357;SDS011;11346;50.150;8.150;2022-08-03T11:39:12;4.23;;;1.80;;
22357;SDS011;11346;50.150;8.150;2022-08-03T11:41:39;5.40;;;1.30;;
22357;SDS011;11346;50.150;8.150;2022-08-03T11:44:08;1.50;;;1.40;;
22357;SDS011;11346;50.150;8.150;2022-08-03T11:46:36;3.47;;;1.40;;
22357;SDS011;11346;50.150;8.150;2022-08-03T11:49:03;1.50;;;1.40;;
22357;SDS011;11346;50.150;8.150;2022-08-03T11:51:31;1.57;;;1.47;;
22357;SDS011;11346;50.150;8.150;2022-08-03T11:53:59;5.97;;;1.17;;
22357;SDS011;11346;50.150;8.150;2022-08-03T11:56:27;1.57;;;1.47;;
22357;SDS011;11346;50.150;8.150;2022-08-03T11:58:55;1.30;;;1.20;;
22357;SDS011;11346;50.150;8.150;2022-08-03T12:01:25;2.93;;;1.33;;
22357;SDS011;11346;50.150;8.150;2022-08-03T12:03:52;2.37;;;1.20;;
22357;SDS011;11346;50.150;8.150;2022-08-03T12:06:20;3.13;;;1.20;;
22357;SDS011;11346;50.150;8.150;2022-08-03T12:08:47;1.47;;;1.37;;
22357;SDS011;11346;50.150;8.150;2022-08-03T12:11:15;1.23;;;1.23;;
22357;SDS011;11346;50.150;8.150;2022-08-03T12:13:43;3.75;;;1.50;;
22357;SDS011;11346;50.150;8.150;2022-08-03T12:16:16;2.58;;;1.80;;
22357;SDS011;11346;50.150;8.150;2022-08-03T12:18:44;1.60;;;1.50;;
22357;SDS011;11346;50.150;8.150;2022-08-03T12:21:12;4.55;;;1.50;;
22357;SDS011;11346;50.150;8.150;2022-08-03T12:23:40;3.30;;;1.50;;
22357;SDS011;11346;50.150;8.150;2022-08-03T12:26:08;1.80;;;1.70;;
22357;SDS011;11346;50.150;8.150;2022-08-03T12:28:35;1.80;;;1.70;;
22357;SDS011;11346;50.150;8.150;2022-08-03T12:31:03;2.90;;;1.58;;
22357;SDS011;11346;50.150;8.150;2022-08-03T12:33:31;3.92;;;1.70;;
22357;SDS011;11346;50.150;8.150;2022-08-03T12:36:06;1.40;;;1.40;;
22357;SDS011;11346;50.150;8.150;2022-08-03T12:38:35;2.77;;;1.30;;
22357;SDS011;11346;50.150;8.150;2022-08-03T12:41:03;1.40;;;1.30;;
22357;SDS011;11346;50.150;8.150;2022-08-03T12:43:30;2.53;;;1.23;;
22357;SDS011;11346;50.150;8.150;2022-08-03T12:46:11;1.63;;;1.40;;
22357;SDS011;11346;50.150;8.150;2022-08-03T12:48:57;1.48;;;1.38;;
22357;SDS011;11346;50.150;8.150;2022-08-03T12:51:26;3.20;;;1.10;;
22357;SDS011;11346;50.150;8.150;2022-08-03T12:53:54;1.55;;;1.27;;
22357;SDS011;11346;50.150;8.150;2022-08-03T12:56:21;4.78;;;1.50;;
22357;SDS011;11346;50.150;8.150;2022-08-03T12:58:48;1.10;;;1.10;;
22357;SDS011;11346;50.150;8.150;2022-08-03T13:01:16;1.23;;;1.10;;
22357;SDS011;11346;50.150;8.150;2022-08-03T13:03:43;3.63;;;1.70;;
22357;SDS011;11346;50.150;8.150;2022-08-03T13:06:11;1.60;;;1.50;;
22357;SDS011;11346;50.150;8.150;2022-08-03T13:08:40;1.50;;;1.40;;
22357;SDS011;11346;50.150;8.150;2022-08-03T13:11:16;1.40;;;1.30;;
22357;SDS011;11346;50.150;8.150;2022-08-03T13:13:43;2.40;;;1.33;;
22357;SDS011;11346;50.150;8.150;2022-08-03T13:16:11;1.47;;;1.20;;
22357;SDS011;11346;50.150;8.150;2022-08-03T13:18:38;1.67;;;1.50;;
22357;SDS011;11346;50.150;8.150;2022-08-03T13:21:05;2.83;;;1.57;;
22357;SDS011;11346;50.150;8.150;2022-08-03T13:23:32;1.77;;;1.50;;
22357;SDS011;11346;50.150;8.150;2022-08-03T13:26:00;1.90;;;1.80;;
22357;SDS011;11346;50.150;8.150;2022-08-03T13:28:28;1.80;;;1.70;;
22357;SDS011;11346;50.150;8.150;2022-08-03T13:30:55;2.20;;;2.07;;
22357;SDS011;11346;50.150;8.150;2022-08-03T13:33:22;1.80;;;1.70;;
22357;SDS011;11346;50.150;8.150;2022-08-03T13:35:49;3.97;;;1.53;;
22357;SDS011;11346;50.150;8.150;2022-08-03T13:38:16;1.93;;;1.80;;
22357;SDS011;11346;50.150;8.150;2022-08-03T13:40:43;2.30;;;1.80;;
22357;SDS011;11346;50.150;8.150;2022-08-03T13:43:12;1.80;;;1.70;;
22357;SDS011;11346;50.150;8.150;2022-08-03T13:45:39;2.10;;;1.90;;
22357;SDS011;11346;50.150;8.150;2022-08-03T13:48:06;3.97;;;1.90;;
22357;SDS011;11346;50.150;8.150;2022-08-03T13:50:33;1.90;;;1.80;;
22357;SDS011;11346;50.150;8.150;2022-08-03T13:53:00;3.27;;;1.90;;
22357;SDS011;11346;50.150;8.150;2022-08-03T13:55:28;3.03;;;1.67;;
22357;SDS011;11346;50.150;8.150;2022-08-03T13:57:55;4.13;;;2.20;;
22357;SDS011;11346;50.150;8.150;2022-08-03T14:00:24;1.70;;;1.60;;
22357;SDS011;11346;50.150;8.150;2022-08-03T14:02:51;2.07;;;1.90;;
22357;SDS011;11346;50.150;8.150;2022-08-03T14:05:18;2.50;;;1.80;;
22357;SDS011;11346;50.150;8.150;2022-08-03T14:07:45;2.47;;;1.77;;
22357;SDS011;11346;50.150;8.150;2022-08-03T14:10:13;2.63;;;1.70;;
22357;SDS011;11346;50.150;8.150;2022-08-03T14:12:41;2.93;;;1.73;;
22357;SDS011;11346;50.150;8.150;2022-08-03T14:15:09;1.67;;;1.57;;
22357;SDS011;11346;50.150;8.150;2022-08-03T14:17:38;1.60;;;1.50;;
22357;SDS011;11346;50.150;8.150;2022-08-03T14:20:06;2.30;;;1.80;;
22357;SDS011;11346;50.150;8.150;2022-08-03T14:22:33;1.97;;;1.87;;
22357;SDS011;11346;50.150;8.150;2022-08-03T14:25:00;1.77;;;1.67;;
22357;SDS011;11346;50.150;8.150;2022-08-03T14:27:27;2.57;;;1.90;;
22357;SDS011;11346;50.150;8.150;2022-08-03T14:29:54;2.40;;;1.90;;
22357;SDS011;11346;50.150;8.150;2022-08-03T14:32:24;1.80;;;1.70;;
22357;SDS011;11346;50.150;8.150;2022-08-03T14:34:52;2.30;;;1.57;;
22357;SDS011;11346;50.150;8.150;2022-08-03T14:37:19;1.80;;;1.70;;
22357;SDS011;11346;50.150;8.150;2022-08-03T14:39:46;1.80;;;1.70;;
22357;SDS011;11346;50.150;8.150;2022-08-03T14:42:14;3.60;;;1.60;;
22357;SDS011;11346;50.150;8.150;2022-08-03T14:44:41;2.73;;;2.03;;
22357;SDS011;11346;50.150;8.150;2022-08-03T14:47:09;1.90;;;1.80;;
22357;SDS011;11346;50.150;8.150;2022-08-03T14:49:36;2.00;;;1.83;;
22357;SDS011;11346;50.150;8.150;2022-08-03T14:52:05;2.43;;;1.80;;
22357;SDS011;11346;50.150;8.150;2022-08-03T14:54:32;2.23;;;1.63;;
22357;SDS011;11346;50.150;8.150;2022-08-03T14:56:59;5.83;;;2.00;;
22357;SDS011;11346;50.150;8.150;2022-08-03T14:59:26;2.10;;;1.90;;
22357;SDS011;11346;50.150;8.150;2022-08-03T15:01:53;1.70;;;1.60;;
22357;SDS011;11346;50.150;8.150;2022-08-03T15:04:21;5.53;;;2.00;;
22357;SDS011;11346;50.150;8.150;2022-08-03T15:06:48;2.83;;;1.83;;
22357;SDS011;11346;50.150;8.150;2022-08-03T15:09:16;4.10;;;1.70;;